Time;durP1;ratioP1;P1;durP2;ratioP2;P2;SDS_P1;SDS_P2;PMS_P1;PMS_P2;Temp;Humidity;BMP_temperature;BMP_pressure;BME280_temperature;BME280_humidity;BME280_pressure;Samples;Min_cycle;Max_cycle;Signal;HPM_P1;HPM_P2
2022/05/08 00:01:07;;;;;;;11.73;5.97;;;15.80;63.40;;;;;;5115806;28;20030;-69
2022/05/08 00:03:33;;;;;;;12.02;5.97;;;15.80;63.50;;;;;;5119007;27;20054;-69
2022/05/08 00:06:00;;;;;;;12.40;6.45;;;15.80;63.60;;;;;;5117316;27;20015;-68
2022/05/08 00:08:28;;;;;;;9.18;5.22;;;15.80;63.60;;;;;;5133174;27;20134;-69
2022/05/08 00:10:54;;;;;;;9.77;6.18;;;15.80;63.70;;;;;;5101432;27;20039;-69
2022/05/08 00:13:19;;;;;;;9.25;5.78;;;15.70;63.60;;;;;;5127996;27;20026;-68
2022/05/08 00:15:45;;;;;;;14.13;6.65;;;15.70;63.70;;;;;;5122483;27;20060;-68
2022/05/08 00:18:10;;;;;;;10.88;6.97;;;15.70;63.80;;;;;;5130389;27;20042;-68
2022/05/08 00:20:36;;;;;;;12.05;6.50;;;15.70;63.80;;;;;;5139474;27;20027;-68
2022/05/08 00:23:05;;;;;;;10.75;6.32;;;15.60;63.70;;;;;;5119723;27;20016;-68
2022/05/08 00:25:33;;;;;;;10.68;7.05;;;15.70;63.80;;;;;;5136434;27;20144;-68
2022/05/08 00:28:00;;;;;;;13.65;6.60;;;15.60;63.70;;;;;;5116901;27;20055;-68
2022/05/08 00:30:25;;;;;;;13.70;6.88;;;15.60;63.80;;;;;;5116903;27;20129;-68
2022/05/08 00:32:51;;;;;;;10.20;6.13;;;15.50;63.80;;;;;;5129949;27;20555;-68
2022/05/08 00:35:17;;;;;;;11.50;6.72;;;15.50;63.80;;;;;;5132473;27;20027;-68
2022/05/08 00:37:42;;;;;;;13.73;7.07;;;15.50;63.80;;;;;;5134043;27;20102;-68
2022/05/08 00:40:08;;;;;;;12.85;7.05;;;15.50;63.90;;;;;;5135484;27;20028;-68
2022/05/08 00:42:33;;;;;;;14.90;6.90;;;15.50;63.90;;;;;;5134270;27;20015;-68
2022/05/08 00:44:59;;;;;;;11.15;7.03;;;15.50;63.90;;;;;;5132006;27;20110;-68
2022/05/08 00:47:25;;;;;;;11.27;6.78;;;15.40;63.90;;;;;;5123257;27;20111;-69
2022/05/08 00:49:50;;;;;;;10.63;6.57;;;15.40;63.90;;;;;;5129569;27;20035;-68
2022/05/08 00:52:17;;;;;;;13.85;6.55;;;15.40;63.90;;;;;;5125886;27;20375;-68
2022/05/08 00:54:43;;;;;;;12.00;6.05;;;15.40;64.00;;;;;;5130001;27;20037;-69
2022/05/08 00:57:09;;;;;;;13.32;5.88;;;15.30;64.00;;;;;;5126279;27;20096;-68
2022/05/08 00:59:35;;;;;;;12.45;6.03;;;15.30;64.50;;;;;;5126354;27;20027;-68
2022/05/08 01:02:02;;;;;;;12.60;6.47;;;15.30;63.80;;;;;;5129491;27;20340;-68
2022/05/08 01:04:27;;;;;;;10.55;5.60;;;15.20;63.70;;;;;;5128152;27;20095;-68
2022/05/08 01:06:53;;;;;;;11.23;5.95;;;15.30;63.70;;;;;;5128743;27;20443;-68
2022/05/08 01:09:19;;;;;;;12.10;6.07;;;15.20;63.50;;;;;;5132560;27;20037;-68
2022/05/08 01:11:44;;;;;;;13.55;5.63;;;15.20;63.50;;;;;;5132024;27;20031;-68
2022/05/08 01:14:13;;;;;;;13.70;5.80;;;15.20;63.50;;;;;;5118986;27;20510;-68
2022/05/08 01:16:40;;;;;;;14.70;5.32;;;15.20;63.50;;;;;;5122234;27;20040;-68
2022/05/08 01:19:05;;;;;;;12.68;5.57;;;15.10;63.40;;;;;;5119384;27;20039;-68
2022/05/08 01:21:41;;;;;;;10.55;5.82;;;15.10;63.20;;;;;;5135525;27;20373;-68
2022/05/08 01:24:10;;;;;;;12.95;5.18;;;15.10;63.00;;;;;;5119442;27;20031;-68
2022/05/08 01:26:36;;;;;;;13.52;5.60;;;15.10;62.90;;;;;;5124605;27;20028;-68
2022/05/08 01:29:03;;;;;;;10.55;4.30;;;15.10;62.70;;;;;;5132796;27;20092;-68
2022/05/08 01:31:31;;;;;;;12.73;5.43;;;15.00;62.50;;;;;;5135999;27;20031;-68
2022/05/08 01:33:56;;;;;;;12.73;4.90;;;15.00;62.50;;;;;;5123242;27;20119;-68
2022/05/08 01:36:22;;;;;;;14.95;5.70;;;14.90;62.30;;;;;;5133142;27;20371;-68
2022/05/08 01:38:48;;;;;;;12.57;4.72;;;14.90;62.20;;;;;;5127402;27;20060;-68
2022/05/08 01:41:14;;;;;;;13.15;5.40;;;14.80;62.10;;;;;;5128001;27;20460;-68
2022/05/08 01:43:41;;;;;;;13.70;4.90;;;14.80;62.00;;;;;;5122097;27;20023;-68
2022/05/08 01:46:07;;;;;;;11.23;4.70;;;14.80;61.90;;;;;;5117145;27;20148;-68
2022/05/08 01:48:34;;;;;;;13.25;4.85;;;14.80;61.80;;;;;;5121307;27;20130;-68
2022/05/08 01:51:01;;;;;;;14.05;4.70;;;14.80;61.70;;;;;;5116024;27;20028;-68
2022/05/08 01:53:29;;;;;;;10.35;4.30;;;14.80;61.50;;;;;;5116784;27;20116;-68
2022/05/08 01:55:56;;;;;;;13.75;4.57;;;14.80;61.50;;;;;;5116035;27;20039;-68
2022/05/08 01:58:23;;;;;;;12.98;4.13;;;14.80;61.40;;;;;;5125158;27;20088;-68
2022/05/08 02:00:49;;;;;;;13.10;4.03;;;14.70;61.40;;;;;;5130761;27;20027;-68
2022/05/08 02:03:15;;;;;;;15.18;4.50;;;14.70;61.30;;;;;;5123940;27;20028;-68
2022/05/08 02:05:43;;;;;;;15.93;4.70;;;14.70;61.20;;;;;;5118056;27;20020;-68
2022/05/08 02:08:11;;;;;;;13.38;3.95;;;14.60;61.10;;;;;;5130238;27;20027;-68
2022/05/08 02:10:38;;;;;;;13.77;3.90;;;14.60;61.10;;;;;;5126468;27;20329;-68
2022/05/08 02:13:04;;;;;;;14.20;3.88;;;14.60;61.00;;;;;;5115170;28;20027;-68
2022/05/08 02:15:30;;;;;;;15.55;4.20;;;14.50;61.00;;;;;;5117428;28;20027;-68
2022/05/08 02:18:08;;;;;;;17.05;4.55;;;14.50;61.10;;;;;;5118239;28;20053;-68
2022/05/08 02:20:35;;;;;;;11.18;4.15;;;14.50;61.10;;;;;;5125779;27;20024;-68
2022/05/08 02:23:01;;;;;;;15.35;4.38;;;14.50;61.00;;;;;;5115078;28;20023;-68
2022/05/08 02:25:30;;;;;;;14.55;4.70;;;14.40;61.10;;;;;;5127271;27;20016;-69
2022/05/08 02:27:56;;;;;;;16.38;3.85;;;14.40;61.20;;;;;;5128415;28;20045;-68
2022/05/08 02:30:23;;;;;;;13.63;3.72;;;14.40;61.20;;;;;;5125643;28;20023;-68
2022/05/08 02:32:51;;;;;;;13.73;3.60;;;14.40;61.30;;;;;;5123633;28;20399;-69
2022/05/08 02:35:17;;;;;;;12.43;3.80;;;14.40;61.30;;;;;;5133190;27;20019;-68
2022/05/08 02:37:44;;;;;;;10.50;3.38;;;14.40;61.20;;;;;;5132617;28;20038;-68
2022/05/08 02:40:10;;;;;;;13.00;4.05;;;14.40;61.30;;;;;;5124387;27;20034;-68
2022/05/08 02:42:37;;;;;;;14.57;4.07;;;14.40;61.30;;;;;;5130338;28;20031;-68
2022/05/08 02:45:04;;;;;;;16.08;4.18;;;14.40;61.30;;;;;;5123520;27;20122;-68
2022/05/08 02:47:32;;;;;;;15.00;4.18;;;14.30;61.30;;;;;;5131879;27;20027;-68
2022/05/08 02:49:58;;;;;;;12.20;3.28;;;14.30;61.30;;;;;;5121095;27;20164;-68
2022/05/08 02:52:23;;;;;;;10.25;3.60;;;14.30;61.30;;;;;;5128391;27;20118;-68
2022/05/08 02:54:49;;;;;;;16.70;3.80;;;14.20;61.30;;;;;;5125982;27;20110;-68
2022/05/08 03:00:05;;;;;;;16.52;3.90;;;14.20;61.40;;;;;;5133989;27;20042;-68
2022/05/08 03:02:34;;;;;;;14.57;3.85;;;14.20;61.30;;;;;;5141315;27;20031;-68
2022/05/08 03:05:01;;;;;;;14.95;4.00;;;14.20;61.30;;;;;;5122915;27;20114;-68
2022/05/08 03:07:27;;;;;;;17.92;4.20;;;14.20;61.40;;;;;;5135730;27;20020;-68
2022/05/08 03:09:52;;;;;;;12.93;4.18;;;14.10;61.30;;;;;;5127716;27;20039;-68
2022/05/08 03:12:18;;;;;;;12.27;3.17;;;14.10;61.40;;;;;;5128215;27;20118;-67
2022/05/08 03:14:44;;;;;;;12.57;3.35;;;14.10;61.40;;;;;;5129456;27;20444;-68
2022/05/08 03:17:10;;;;;;;12.93;3.83;;;14.10;61.50;;;;;;5121642;27;20035;-68
2022/05/08 03:19:35;;;;;;;15.27;3.40;;;14.10;61.40;;;;;;5114442;28;20035;-67
2022/05/08 03:22:01;;;;;;;10.95;3.05;;;14.10;61.30;;;;;;5117654;27;20365;-68
2022/05/08 03:24:31;;;;;;;15.80;3.80;;;14.10;61.30;;;;;;5118758;27;20344;-68
2022/05/08 03:26:57;;;;;;;16.00;3.63;;;14.10;61.30;;;;;;5129604;27;20027;-68
2022/05/08 03:29:25;;;;;;;14.20;3.28;;;14.10;61.30;;;;;;5122698;27;20038;-68
2022/05/08 03:31:50;;;;;;;18.20;3.75;;;14.10;61.30;;;;;;5126538;27;20405;-68
2022/05/08 03:34:16;;;;;;;13.82;3.97;;;14.10;61.30;;;;;;5119181;27;20073;-68
2022/05/08 03:36:43;;;;;;;15.43;3.58;;;14.10;61.30;;;;;;5125312;27;20037;-68
2022/05/08 03:39:10;;;;;;;13.77;3.00;;;14.10;61.30;;;;;;5132008;27;20417;-68
2022/05/08 03:41:37;;;;;;;13.65;3.60;;;14.00;61.30;;;;;;5120768;27;20106;-68
2022/05/08 03:44:03;;;;;;;14.13;3.88;;;14.00;61.30;;;;;;5133985;27;20031;-68
2022/05/08 03:46:28;;;;;;;12.68;3.80;;;14.00;61.40;;;;;;5131992;27;20023;-68
2022/05/08 03:48:55;;;;;;;14.50;3.70;;;14.00;61.40;;;;;;5116129;28;20032;-68
2022/05/08 03:51:20;;;;;;;8.95;3.10;;;13.90;61.40;;;;;;5132537;27;20404;-68
2022/05/08 03:53:46;;;;;;;10.75;3.53;;;13.90;61.30;;;;;;5129772;27;20115;-68
2022/05/08 03:56:12;;;;;;;10.00;3.33;;;13.90;61.30;;;;;;5126461;27;20023;-68
2022/05/08 03:58:39;;;;;;;12.52;3.53;;;13.80;61.30;;;;;;5124340;27;20035;-68
2022/05/08 04:01:06;;;;;;;11.00;3.42;;;13.80;61.40;;;;;;5117907;27;20024;-68
2022/05/08 04:03:31;;;;;;;14.55;3.63;;;13.80;61.40;;;;;;5133636;27;20042;-68
2022/05/08 04:05:57;;;;;;;15.82;3.50;;;13.80;61.40;;;;;;5121927;27;20118;-68
2022/05/08 04:08:22;;;;;;;13.43;3.42;;;13.80;61.40;;;;;;5125975;27;20039;-68
2022/05/08 04:10:48;;;;;;;14.02;3.45;;;13.80;61.40;;;;;;5126889;27;20390;-68
2022/05/08 04:13:13;;;;;;;15.43;3.10;;;13.80;61.50;;;;;;5132417;27;20031;-68
2022/05/08 04:18:23;;;;;;;17.42;3.40;;;13.70;61.40;;;;;;5125363;27;20031;-68
2022/05/08 04:20:49;;;;;;;17.15;4.15;;;13.70;61.50;;;;;;5126289;27;20027;-68
2022/05/08 04:25:58;;;;;;;10.52;2.85;;;13.60;61.60;;;;;;5125653;27;20032;-68
2022/05/08 04:28:24;;;;;;;12.48;3.42;;;13.60;61.60;;;;;;5118814;27;20027;-68
2022/05/08 04:30:51;;;;;;;13.18;3.53;;;13.60;61.70;;;;;;5119023;27;20118;-68
2022/05/08 04:33:16;;;;;;;12.57;3.22;;;13.50;61.60;;;;;;5117697;27;20372;-68
2022/05/08 04:35:42;;;;;;;13.77;3.67;;;13.60;62.40;;;;;;5136859;27;20033;-69
2022/05/08 04:38:08;;;;;;;13.65;3.35;;;13.50;61.60;;;;;;5124428;27;20127;-70
2022/05/08 04:40:34;;;;;;;11.98;3.63;;;13.50;61.70;;;;;;5094944;27;20034;-68
2022/05/08 04:43:00;;;;;;;14.68;3.30;;;13.50;61.60;;;;;;5123973;27;20114;-68
2022/05/08 04:45:25;;;;;;;11.82;3.33;;;13.50;61.70;;;;;;5115633;28;20047;-68
2022/05/08 04:47:51;;;;;;;13.00;3.63;;;13.50;61.60;;;;;;5123062;27;20038;-68
2022/05/08 04:50:16;;;;;;;14.13;3.70;;;13.50;61.60;;;;;;5131847;27;20364;-68
2022/05/08 04:52:42;;;;;;;11.25;2.78;;;13.50;61.60;;;;;;5130449;27;20027;-68
2022/05/08 04:55:08;;;;;;;11.52;3.10;;;13.50;61.60;;;;;;5126681;27;20027;-68
2022/05/08 04:57:34;;;;;;;15.02;3.45;;;13.50;61.60;;;;;;5119352;27;20364;-66
2022/05/08 05:00:00;;;;;;;12.57;3.15;;;13.50;61.50;;;;;;5121421;27;20032;-66
2022/05/08 05:02:26;;;;;;;9.32;3.05;;;13.50;61.50;;;;;;5118012;27;20073;-66
2022/05/08 05:04:52;;;;;;;14.93;3.42;;;13.50;61.50;;;;;;5104675;27;20035;-66
2022/05/08 05:07:17;;;;;;;13.02;3.47;;;13.50;61.50;;;;;;5114256;28;20076;-67
2022/05/08 05:09:43;;;;;;;12.80;3.35;;;13.50;61.50;;;;;;5124398;27;20356;-67
2022/05/08 05:12:09;;;;;;;11.77;3.33;;;13.50;61.40;;;;;;5126209;27;20031;-67
2022/05/08 05:14:35;;;;;;;12.88;3.70;;;13.60;61.40;;;;;;5115826;27;20043;-67
2022/05/08 05:17:00;;;;;;;12.52;3.42;;;13.60;61.30;;;;;;5134533;27;20029;-67
2022/05/08 05:19:29;;;;;;;13.98;3.47;;;13.60;61.20;;;;;;5113456;28;20035;-67
2022/05/08 05:21:55;;;;;;;11.30;3.33;;;13.60;61.20;;;;;;5115336;28;20058;-67
2022/05/08 05:24:21;;;;;;;16.02;3.35;;;13.70;61.10;;;;;;5131258;27;20027;-67
2022/05/08 05:26:47;;;;;;;16.65;3.65;;;13.70;60.90;;;;;;5126828;27;20062;-67
2022/05/08 05:29:14;;;;;;;9.35;2.95;;;13.80;60.80;;;;;;5126898;27;20092;-66
2022/05/08 05:31:40;;;;;;;14.10;3.33;;;13.90;60.50;;;;;;5116882;27;20024;-67
2022/05/08 05:34:06;;;;;;;14.77;3.25;;;14.00;60.30;;;;;;5127530;27;20092;-66
2022/05/08 05:36:31;;;;;;;12.40;3.10;;;14.10;60.00;;;;;;5133596;27;20373;-67
2022/05/08 05:38:57;;;;;;;12.13;2.85;;;14.20;60.00;;;;;;5127266;27;20066;-67
2022/05/08 05:41:22;;;;;;;11.55;3.20;;;14.30;59.80;;;;;;5131235;27;20023;-67
2022/05/08 05:43:48;;;;;;;11.07;3.17;;;14.30;59.60;;;;;;5119044;27;20020;-66
2022/05/08 05:48:58;;;;;;;12.43;3.45;;;14.60;59.20;;;;;;5130842;27;20516;-66
2022/05/08 05:51:23;;;;;;;11.75;3.13;;;14.70;58.90;;;;;;5122042;27;20039;-67
2022/05/08 05:53:49;;;;;;;13.95;2.88;;;14.80;58.70;;;;;;5130265;27;20113;-67
2022/05/08 05:56:15;;;;;;;12.27;3.08;;;14.90;58.50;;;;;;5124159;27;20027;-66
2022/05/08 05:58:40;;;;;;;11.20;3.03;;;15.10;58.10;;;;;;5123884;27;20086;-66
2022/05/08 06:01:06;;;;;;;12.25;3.42;;;15.10;57.90;;;;;;5115077;27;20034;-66
2022/05/08 06:03:35;;;;;;;12.10;3.13;;;15.30;57.70;;;;;;5128516;27;20483;-67
2022/05/08 06:06:00;;;;;;;11.63;2.75;;;15.40;57.40;;;;;;5121288;27;20461;-67
2022/05/08 06:08:26;;;;;;;10.43;2.72;;;15.50;57.10;;;;;;5121643;28;20137;-67
2022/05/08 06:10:51;;;;;;;9.68;2.63;;;15.60;56.80;;;;;;5140348;27;20038;-66
2022/05/08 06:13:17;;;;;;;11.63;2.47;;;15.80;56.30;;;;;;5132729;27;20102;-67
2022/05/08 06:15:43;;;;;;;12.23;3.20;;;16.00;56.00;;;;;;5134068;28;20019;-67
2022/05/08 06:18:08;;;;;;;11.68;2.72;;;16.10;55.50;;;;;;5135969;27;20043;-66
2022/05/08 06:20:34;;;;;;;8.02;2.72;;;16.20;55.20;;;;;;5116038;27;20027;-66
2022/05/08 06:23:00;;;;;;;12.60;2.30;;;16.40;54.90;;;;;;5137554;27;20076;-66
2022/05/08 06:25:29;;;;;;;10.32;2.58;;;16.50;54.60;;;;;;5121692;27;20338;-67
2022/05/08 06:27:56;;;;;;;11.85;2.92;;;16.60;54.30;;;;;;5131096;27;20043;-68
2022/05/08 06:30:21;;;;;;;9.82;2.50;;;16.80;54.00;;;;;;5118786;27;20019;-67
2022/05/08 06:32:47;;;;;;;9.77;2.20;;;16.90;53.70;;;;;;5124512;27;20041;-66
2022/05/08 06:35:12;;;;;;;11.13;2.60;;;17.10;53.30;;;;;;5137115;27;20076;-66
2022/05/08 06:37:38;;;;;;;9.90;2.35;;;17.20;53.00;;;;;;5118432;27;20031;-66
2022/05/08 06:40:04;;;;;;;12.15;2.45;;;17.40;52.70;;;;;;5120753;27;20090;-66
2022/05/08 06:42:31;;;;;;;8.32;1.83;;;17.40;52.20;;;;;;5123816;27;20440;-66
2022/05/08 06:45:00;;;;;;;7.85;2.00;;;17.50;51.80;;;;;;5116728;27;20058;-66
2022/05/08 06:47:25;;;;;;;9.65;2.13;;;17.50;51.60;;;;;;5098796;27;20035;-66
2022/05/08 06:49:51;;;;;;;9.70;2.47;;;17.60;51.30;;;;;;5132275;27;20023;-66
2022/05/08 06:52:17;;;;;;;9.23;2.17;;;17.70;51.10;;;;;;5136298;27;20031;-67
2022/05/08 06:54:43;;;;;;;9.57;2.40;;;17.80;50.90;;;;;;5137278;27;20030;-67
2022/05/08 06:57:09;;;;;;;9.77;2.60;;;17.90;50.60;;;;;;5139048;27;20033;-67
2022/05/08 07:02:18;;;;;;;9.05;2.35;;;18.10;50.10;;;;;;5130566;27;20134;-66
2022/05/08 07:04:44;;;;;;;13.43;2.03;;;18.30;49.80;;;;;;5105178;27;20027;-67
2022/05/08 07:07:10;;;;;;;7.35;2.25;;;18.40;49.40;;;;;;5138870;27;20038;-67
2022/05/08 07:09:37;;;;;;;9.18;2.22;;;18.50;49.20;;;;;;5135765;27;20110;-67
2022/05/08 07:12:03;;;;;;;11.55;2.47;;;18.60;49.00;;;;;;5135970;27;20433;-67
2022/05/08 07:14:29;;;;;;;7.35;1.90;;;18.80;48.70;;;;;;5135128;27;20024;-67
2022/05/08 07:16:55;;;;;;;6.72;1.60;;;18.90;48.50;;;;;;5135958;27;20516;-67
2022/05/08 07:19:23;;;;;;;9.60;2.50;;;19.00;48.20;;;;;;5133850;27;20088;-65
2022/05/08 07:21:48;;;;;;;10.05;2.78;;;19.00;47.70;;;;;;5137380;27;20447;-65
2022/05/08 07:24:14;;;;;;;9.75;2.58;;;19.10;47.70;;;;;;5132370;27;20086;-65
2022/05/08 07:26:41;;;;;;;7.75;2.33;;;19.10;47.70;;;;;;5136830;27;20023;-67
2022/05/08 07:29:07;;;;;;;11.95;2.38;;;19.20;47.50;;;;;;5135943;27;20046;-67
2022/05/08 07:31:32;;;;;;;7.15;2.20;;;19.40;47.20;;;;;;5122023;27;20032;-67
2022/05/08 07:36:44;;;;;;;7.32;1.98;;;19.50;46.70;;;;;;5135584;27;20030;-67
2022/05/08 07:39:10;;;;;;;9.27;2.58;;;19.70;46.40;;;;;;5133242;27;20034;-66
2022/05/08 07:41:36;;;;;;;11.95;2.67;;;19.70;46.30;;;;;;5122118;27;20031;-66
2022/05/08 07:44:02;;;;;;;9.00;2.40;;;19.90;46.00;;;;;;5117973;27;20140;-66
2022/05/08 07:46:28;;;;;;;9.10;2.33;;;20.00;45.70;;;;;;5127815;27;20035;-66
2022/05/08 07:48:54;;;;;;;10.65;2.35;;;20.00;45.30;;;;;;5134474;27;20100;-66
2022/05/08 07:51:20;;;;;;;11.68;2.60;;;20.10;45.30;;;;;;5137893;27;20172;-66
2022/05/08 07:53:46;;;;;;;7.28;2.03;;;20.20;44.90;;;;;;5136156;27;20042;-67
2022/05/08 07:56:11;;;;;;;8.43;2.53;;;20.30;45.00;;;;;;5128512;27;20027;-66
2022/05/08 07:58:37;;;;;;;7.28;2.22;;;20.30;44.80;;;;;;5132807;27;20046;-67
2022/05/08 08:01:03;;;;;;;7.35;2.08;;;20.40;44.60;;;;;;5116637;27;20035;-66
2022/05/08 08:03:31;;;;;;;8.90;2.35;;;20.50;44.50;;;;;;5137905;27;20092;-68
2022/05/08 08:05:57;;;;;;;10.63;2.55;;;20.70;44.30;;;;;;5134044;27;20120;-68
2022/05/08 08:08:25;;;;;;;8.18;2.05;;;20.80;44.30;;;;;;5117072;27;20316;-67
2022/05/08 08:10:53;;;;;;;8.55;2.08;;;20.90;44.20;;;;;;5122592;27;20041;-67
2022/05/08 08:13:23;;;;;;;9.18;2.20;;;21.00;44.00;;;;;;5128436;27;20117;-67
2022/05/08 08:15:52;;;;;;;7.80;2.05;;;21.00;43.60;;;;;;5094973;27;20110;-67
2022/05/08 08:18:18;;;;;;;10.93;2.42;;;21.10;43.70;;;;;;5124748;27;20138;-67
2022/05/08 08:20:45;;;;;;;8.23;2.42;;;21.20;43.30;;;;;;5128736;27;20035;-67
2022/05/08 08:23:11;;;;;;;9.30;2.05;;;21.20;43.20;;;;;;5136226;27;20023;-67
2022/05/08 08:25:37;;;;;;;6.95;2.05;;;21.30;43.20;;;;;;5127494;27;20370;-67
2022/05/08 08:28:03;;;;;;;9.60;2.70;;;21.30;43.00;;;;;;5116837;27;20083;-68
2022/05/08 08:30:29;;;;;;;8.43;2.38;;;21.40;42.70;;;;;;5132873;27;20027;-68
2022/05/08 08:32:55;;;;;;;11.05;2.60;;;21.50;42.50;;;;;;5119167;27;20062;-68
2022/05/08 08:35:21;;;;;;;8.95;2.38;;;21.50;42.30;;;;;;5135463;27;20499;-68
2022/05/08 08:37:46;;;;;;;8.20;2.42;;;21.60;42.30;;;;;;5135677;27;20027;-68
2022/05/08 08:40:13;;;;;;;8.57;2.42;;;21.60;42.20;;;;;;5126221;27;20113;-68
2022/05/08 08:42:41;;;;;;;9.48;2.30;;;21.70;42.00;;;;;;5120536;27;20019;-68
2022/05/08 08:48:06;;;;;;;9.60;2.55;;;21.80;41.50;;;;;;5135301;27;20015;-66
2022/05/08 08:50:32;;;;;;;7.35;2.08;;;21.90;41.50;;;;;;5115719;27;20028;-66
2022/05/08 08:53:00;;;;;;;8.70;2.20;;;22.00;41.40;;;;;;5116535;27;20024;-67
2022/05/08 08:55:26;;;;;;;7.68;2.10;;;22.10;41.20;;;;;;5131782;27;20023;-66
2022/05/08 08:57:52;;;;;;;8.68;2.47;;;22.20;41.10;;;;;;5115607;28;20425;-66
2022/05/08 09:00:18;;;;;;;9.18;2.58;;;22.30;41.00;;;;;;5137275;27;20119;-66
2022/05/08 09:02:45;;;;;;;8.23;2.45;;;22.30;40.90;;;;;;5135993;27;20028;-66
2022/05/08 09:05:10;;;;;;;7.47;2.10;;;22.40;40.80;;;;;;5119077;27;20027;-66
2022/05/08 09:07:43;;;;;;;8.30;2.55;;;22.50;41.30;;;;;;5116472;28;20027;-66
2022/05/08 09:10:20;;;;;;;9.05;2.33;;;22.60;40.60;;;;;;5131081;27;20363;-66
2022/05/08 09:12:52;;;;;;;6.50;1.92;;;22.70;40.30;;;;;;5118252;27;20030;-66
2022/05/08 09:15:37;;;;;;;7.35;2.08;;;22.70;40.10;;;;;;5116782;27;20367;-66
2022/05/08 09:18:11;;;;;;;6.43;2.20;;;22.80;39.70;;;;;;5111706;27;20363;-66
2022/05/08 09:20:42;;;;;;;5.32;1.90;;;22.80;39.60;;;;;;5115514;27;20023;-66
2022/05/08 09:23:14;;;;;;;8.38;2.40;;;22.90;39.80;;;;;;5115646;28;20023;-66
2022/05/08 09:25:50;;;;;;;7.25;1.98;;;23.00;39.60;;;;;;5115179;27;20444;-66
2022/05/08 09:28:41;;;;;;;7.80;2.30;;;23.00;39.00;;;;;;5123447;27;20050;-66
2022/05/08 09:31:15;;;;;;;8.15;2.33;;;23.00;38.70;;;;;;5126704;27;20054;-66
2022/05/08 09:33:49;;;;;;;8.40;2.15;;;23.10;38.30;;;;;;5129653;27;20050;-66
2022/05/08 09:36:18;;;;;;;8.55;2.17;;;23.10;38.10;;;;;;5135955;27;20023;-67
2022/05/08 09:38:46;;;;;;;7.80;2.15;;;23.10;38.00;;;;;;5124368;27;20076;-64
2022/05/08 09:41:14;;;;;;;6.28;1.90;;;23.00;37.80;;;;;;5132431;27;20038;-64
2022/05/08 09:43:41;;;;;;;6.68;1.80;;;23.00;37.70;;;;;;5132518;27;20023;-64
2022/05/08 09:46:08;;;;;;;7.53;2.28;;;23.00;38.00;;;;;;5133575;27;20035;-65
2022/05/08 09:48:34;;;;;;;7.50;2.10;;;23.10;38.00;;;;;;5134770;27;20046;-64
2022/05/08 09:51:05;;;;;;;6.90;1.95;;;23.30;37.90;;;;;;5133831;27;20106;-64
2022/05/08 09:53:32;;;;;;;7.10;2.22;;;23.30;38.00;;;;;;5132414;27;20031;-67
2022/05/08 09:56:01;;;;;;;11.55;2.35;;;23.50;37.90;;;;;;5132677;27;20050;-67
2022/05/08 09:58:27;;;;;;;7.80;2.03;;;23.50;37.60;;;;;;5134477;27;20095;-67
2022/05/08 10:00:56;;;;;;;6.97;2.03;;;23.50;37.30;;;;;;5119090;27;20114;-67
2022/05/08 10:03:23;;;;;;;6.20;2.03;;;23.50;37.20;;;;;;5125555;28;20039;-65
2022/05/08 10:05:53;;;;;;;7.95;2.10;;;23.50;37.20;;;;;;5118634;27;20011;-66
2022/05/08 10:08:22;;;;;;;9.48;2.45;;;23.60;37.20;;;;;;5115014;28;20023;-66
2022/05/08 10:13:56;;;;;;;8.18;2.25;;;23.70;36.70;;;;;;5132905;27;20531;-66
2022/05/08 10:16:53;;;;;;;9.77;2.28;;;23.80;36.60;;;;;;5126851;28;20111;-66
2022/05/08 10:19:22;;;;;;;;;;;23.90;36.50;;;;;;5124512;28;20070;-65
2022/05/08 10:22:35;;;;;;;6.95;1.90;;;23.90;36.90;;;;;;5123051;27;19907;-66
2022/05/08 10:25:15;;;;;;;6.57;2.00;;;24.00;36.90;;;;;;5113292;27;20043;-66
2022/05/08 10:28:01;;;;;;;7.47;2.08;;;24.00;36.70;;;;;;5115360;28;20027;-66
2022/05/08 10:30:27;;;;;;;6.40;1.73;;;24.10;36.60;;;;;;5114643;28;20030;-66
2022/05/08 10:32:52;;;;;;;6.93;2.17;;;24.10;36.10;;;;;;5131750;28;20047;-66
2022/05/08 10:35:28;;;;;;;7.95;2.00;;;24.20;35.90;;;;;;5116915;27;20172;-66
2022/05/08 10:37:59;;;;;;;8.13;2.05;;;24.20;35.60;;;;;;5136319;27;20508;-66
2022/05/08 10:40:28;;;;;;;7.72;2.15;;;24.20;35.60;;;;;;5133275;27;20042;-66
2022/05/08 10:42:59;;;;;;;7.65;1.77;;;24.30;35.70;;;;;;5132701;28;20146;-66
2022/05/08 10:45:33;;;;;;;8.13;1.98;;;24.30;35.40;;;;;;5134873;27;20072;-66
2022/05/08 10:48:07;;;;;;;7.68;1.92;;;24.20;35.30;;;;;;5116989;27;20027;-66
2022/05/08 10:50:34;;;;;;;5.90;2.00;;;24.20;35.40;;;;;;5114744;28;20051;-66
2022/05/08 10:52:59;;;;;;;7.55;2.13;;;24.20;35.30;;;;;;5115227;28;20024;-66
2022/05/08 10:55:26;;;;;;;7.13;1.85;;;24.20;35.20;;;;;;5131755;28;20323;-66
2022/05/08 10:57:53;;;;;;;10.77;2.33;;;24.30;35.30;;;;;;5133068;27;20023;-66
2022/05/08 11:00:21;;;;;;;6.75;1.67;;;24.30;35.00;;;;;;5133567;27;20038;-67
2022/05/08 11:02:56;;;;;;;6.47;1.80;;;24.20;34.80;;;;;;5132540;27;20037;-67
2022/05/08 11:05:23;;;;;;;5.90;1.85;;;24.20;34.80;;;;;;5134801;27;20029;-66
2022/05/08 11:07:58;;;;;;;7.20;2.03;;;24.20;34.80;;;;;;5129433;27;20440;-67
2022/05/08 11:10:29;;;;;;;5.78;1.75;;;24.20;34.90;;;;;;5117029;27;20026;-67
2022/05/08 11:12:55;;;;;;;4.40;1.65;;;24.20;34.80;;;;;;5125349;27;20032;-66
2022/05/08 11:15:20;;;;;;;8.15;2.10;;;24.20;35.20;;;;;;5120406;27;20032;-66
2022/05/08 11:18:20;;;;;;;11.25;2.33;;;24.20;35.10;;;;;;5117415;27;20147;-66
2022/05/08 11:20:57;;;;;;;4.75;1.52;;;24.20;34.90;;;;;;5117754;27;20039;-66
2022/05/08 11:23:25;;;;;;;6.40;1.98;;;24.20;35.00;;;;;;5127497;27;20036;-67
2022/05/08 11:25:55;;;;;;;7.32;2.10;;;24.20;34.70;;;;;;5137244;27;20099;-66
2022/05/08 11:28:25;;;;;;;7.15;2.10;;;24.30;34.60;;;;;;5134923;27;20057;-66
2022/05/08 11:30:53;;;;;;;7.25;1.70;;;24.30;34.40;;;;;;5133321;27;20115;-66
2022/05/08 11:36:32;;;;;;;6.05;2.10;;;24.30;34.30;;;;;;5135260;27;20035;-67
2022/05/08 11:39:03;;;;;;;6.15;1.90;;;24.30;34.50;;;;;;5119158;27;20046;-67
2022/05/08 11:41:33;;;;;;;;;;;24.20;34.50;;;;;;5122726;27;20041;-67
2022/05/08 11:44:15;;;;;;;5.38;1.50;;;24.10;34.80;;;;;;5132404;27;19942;-67
2022/05/08 11:46:45;;;;;;;5.32;1.65;;;24.00;34.70;;;;;;5137031;27;20115;-67
2022/05/08 11:49:18;;;;;;;6.82;2.03;;;23.90;34.80;;;;;;5118207;27;20087;-67
2022/05/08 11:51:52;;;;;;;6.45;1.85;;;24.00;35.10;;;;;;5135950;27;20043;-66
2022/05/08 11:54:22;;;;;;;5.80;1.80;;;24.00;34.90;;;;;;5128495;27;20121;-66
2022/05/08 11:56:52;;;;;;;6.00;1.88;;;24.00;35.00;;;;;;5137027;27;20035;-67
2022/05/08 11:59:22;;;;;;;4.35;1.60;;;23.90;34.50;;;;;;5127572;27;20032;-67
2022/05/08 12:01:53;;;;;;;7.65;2.10;;;23.80;34.40;;;;;;5117613;27;20019;-67
2022/05/08 12:04:28;;;;;;;6.93;1.58;;;23.80;34.30;;;;;;5116659;28;20126;-67
2022/05/08 12:07:10;;;;;;;5.90;1.85;;;23.70;34.40;;;;;;5119784;27;20024;-67
2022/05/08 12:09:51;;;;;;;6.03;1.80;;;23.60;34.50;;;;;;5127954;27;20080;-67
2022/05/08 12:12:33;;;;;;;7.60;2.10;;;23.60;34.50;;;;;;5128994;27;20086;-67
2022/05/08 12:15:08;;;;;;;7.88;2.15;;;23.40;34.30;;;;;;5120926;27;20337;-67
2022/05/08 12:17:40;;;;;;;7.88;2.10;;;23.40;34.70;;;;;;5131167;27;20421;-67
2022/05/08 12:20:26;;;;;;;6.65;1.75;;;23.30;35.10;;;;;;5120088;27;20069;-67
2022/05/08 12:23:03;;;;;;;6.60;1.80;;;23.10;34.90;;;;;;5117170;27;20370;-67
2022/05/08 12:25:30;;;;;;;7.47;1.83;;;23.00;35.00;;;;;;5122757;27;20140;-67
2022/05/08 12:27:56;;;;;;;7.60;1.92;;;22.80;35.20;;;;;;5122615;27;20054;-67
2022/05/08 12:30:22;;;;;;;5.53;1.58;;;22.80;35.30;;;;;;5114410;27;20476;-69
2022/05/08 12:32:48;;;;;;;6.93;1.77;;;22.70;35.10;;;;;;5118808;27;20144;-66
2022/05/08 12:35:14;;;;;;;7.13;2.05;;;22.60;34.90;;;;;;5122920;27;20088;-66
2022/05/08 12:37:40;;;;;;;5.38;1.95;;;22.50;35.10;;;;;;5118594;27;20032;-66
2022/05/08 12:40:13;;;;;;;7.18;2.00;;;22.50;35.00;;;;;;5119698;27;20020;-66
2022/05/08 12:42:39;;;;;;;8.70;1.50;;;22.40;35.00;;;;;;5116719;27;20085;-66
2022/05/08 12:45:07;;;;;;;5.75;1.95;;;22.30;35.10;;;;;;5124821;27;20051;-66
2022/05/08 12:47:33;;;;;;;5.28;1.48;;;22.30;35.30;;;;;;5124175;27;20468;-66
2022/05/08 12:49:58;;;;;;;5.38;1.45;;;22.30;35.40;;;;;;5123307;27;20040;-67
2022/05/08 12:52:24;;;;;;;7.35;1.95;;;22.30;35.40;;;;;;5128895;27;20336;-67
2022/05/08 12:54:50;;;;;;;4.45;1.40;;;22.30;35.30;;;;;;5116302;27;20032;-67
2022/05/08 12:59:42;;;;;;;5.63;1.73;;;22.20;35.20;;;;;;5126524;27;20035;-67
2022/05/08 13:00:02;;;;;;;5.82;2.08;;;22.20;35.30;;;;;;5130895;27;20047;-67
2022/05/08 13:02:28;;;;;;;7.78;1.90;;;22.20;35.40;;;;;;5127669;27;20342;-67
2022/05/08 13:04:54;;;;;;;5.05;1.77;;;22.10;35.30;;;;;;5119895;27;20023;-67
2022/05/08 13:07:20;;;;;;;4.78;1.55;;;22.10;35.40;;;;;;5129518;27;20035;-67
2022/05/08 13:09:46;;;;;;;5.57;1.88;;;22.00;35.30;;;;;;5122271;27;20019;-67
2022/05/08 13:12:12;;;;;;;6.28;1.73;;;22.00;35.40;;;;;;5133006;27;20404;-67